Terminal Aerodrome Forecast
Issued by NWS Quad Cities IA IL

Home | Current Version | Previous Version | Text Only | Print | Product List | Glossary On
Versions: 1 2 3 4 5 6 7 8 9 10 11 12 13 14
500
FTUS43 KDVN 242201 AAB
TAFDBQ
TAF AMD
KDBQ 242201Z 2422/2518 32010KT P6SM SCT025 SCT150
     FM251000 33006KT P6SM SKC=

USA.gov is the U.S. government's official web portal to all federal, state and local government web resources and services.